Time,TemperatureF,DewpointF,PressureIn,WindDirection,WindDirectionDegrees,WindSpeedMPH,WindSpeedGustMPH,Humidity,HourlyPrecipIn,Conditions,Clouds,dailyrainin,SoftwareType,DateUTC
2013-01-16 00:04:00,75.0,-99.9,30.06,SE,135,11.0,13.0,-999,-99.99,,,-99.99,,2013-01-16 05:04:00,
2013-01-16 00:12:00,75.0,-99.9,30.06,SE,132,12.0,14.0,-999,-99.99,,,-99.99,,2013-01-16 05:12:00,
2013-01-16 00:23:00,75.0,-99.9,30.06,ESE,119,12.0,13.0,-999,-99.99,,,-99.99,,2013-01-16 05:23:00,
2013-01-16 00:33:00,75.0,-99.9,30.06,SE,134,11.0,13.0,-999,-99.99,,,-99.99,,2013-01-16 05:33:00,
2013-01-16 00:43:00,75.0,-99.9,30.06,SE,128,10.0,13.0,-999,-99.99,,,-99.99,,2013-01-16 05:43:00,
2013-01-16 00:53:00,75.0,-99.9,30.06,SE,129,9.0,12.0,-999,-99.99,,,-99.99,,2013-01-16 05:53:00,
2013-01-16 01:03:00,75.0,-99.9,30.06,SE,124,9.0,11.0,-999,-99.99,,,-99.99,,2013-01-16 06:03:00,
2013-01-16 01:12:00,75.0,-99.9,30.06,SE,134,9.0,12.0,-999,-99.99,,,-99.99,,2013-01-16 06:12:00,
2013-01-16 01:22:00,75.0,-99.9,30.06,SE,138,8.0,10.0,-999,-99.99,,,-99.99,,2013-01-16 06:22:00,
2013-01-16 01:33:00,75.0,-99.9,30.06,SE,139,11.0,12.0,-999,-99.99,,,-99.99,,2013-01-16 06:33:00,
2013-01-16 01:43:00,75.0,-99.9,30.06,SE,145,9.0,10.0,-999,-99.99,,,-99.99,,2013-01-16 06:43:00,
2013-01-16 01:53:00,75.0,-99.9,30.06,SE,134,9.0,12.0,-999,-99.99,,,-99.99,,2013-01-16 06:53:00,
2013-01-16 02:02:00,75.0,-99.9,30.06,SE,133,10.0,12.0,-999,-99.99,,,-99.99,,2013-01-16 07:02:00,
2013-01-16 02:12:00,75.0,-99.9,30.06,SE,140,11.0,14.0,-999,-99.99,,,-99.99,,2013-01-16 07:12:00,
2013-01-16 02:22:00,75.0,-99.9,30.06,SSE,150,11.0,13.0,-999,-99.99,,,-99.99,,2013-01-16 07:22:00,
2013-01-16 02:33:00,75.0,-99.9,30.06,SE,146,10.0,11.0,-999,-99.99,,,-99.99,,2013-01-16 07:33:00,
2013-01-16 02:42:00,75.0,-99.9,30.06,SSE,152,9.0,10.0,-999,-99.99,,,-99.99,,2013-01-16 07:42:00,
2013-01-16 02:52:00,75.0,-99.9,30.06,SSE,149,9.0,11.0,-999,-99.99,,,-99.99,,2013-01-16 07:52:00,
2013-01-16 03:03:00,75.0,-99.9,30.06,SSE,150,9.0,11.0,-999,-99.99,,,-99.99,,2013-01-16 08:03:00,
2013-01-16 03:12:00,75.0,-99.9,30.06,SSE,153,10.0,12.0,-999,-99.99,,,-99.99,,2013-01-16 08:12:00,
2013-01-16 03:23:00,76.0,-99.9,30.06,SSE,151,11.0,12.0,-999,-99.99,,,-99.99,,2013-01-16 08:23:00,
2013-01-16 03:33:00,76.0,-99.9,30.06,SSE,154,11.0,13.0,-999,-99.99,,,-99.99,,2013-01-16 08:33:00,
2013-01-16 03:42:00,75.0,-99.9,30.06,SSE,156,10.0,12.0,-999,-99.99,,,-99.99,,2013-01-16 08:42:00,
2013-01-16 03:53:00,75.0,-99.9,30.06,SSE,156,11.0,11.0,-999,-99.99,,,-99.99,,2013-01-16 08:53:00,
2013-01-16 04:02:00,75.0,-99.9,30.06,SSE,155,9.0,12.0,-999,-99.99,,,-99.99,,2013-01-16 09:02:00,
2013-01-16 04:12:00,72.0,-99.9,30.06,West,274,3.0,4.0,-999,-99.99,,,-99.99,,2013-01-16 09:12:00,
2013-01-16 04:22:00,72.0,-99.9,30.06,West,268,3.0,6.0,-999,-99.99,,,-99.99,,2013-01-16 09:22:00,
2013-01-16 04:33:00,71.0,-99.9,30.06,WNW,289,4.0,5.0,-999,-99.99,,,-99.99,,2013-01-16 09:33:00,
2013-01-16 04:43:00,71.0,-99.9,30.06,West,281,4.0,5.0,-999,-99.99,,,-99.99,,2013-01-16 09:43:00,
2013-01-16 04:53:00,71.0,-99.9,30.06,West,265,3.0,5.0,-999,-99.99,,,-99.99,,2013-01-16 09:53:00,
2013-01-16 05:03:00,71.0,-99.9,30.06,WNW,295,3.0,4.0,-999,-99.99,,,-99.99,,2013-01-16 10:03:00,
2013-01-16 05:12:00,71.0,-99.9,30.06,WNW,301,4.0,4.0,-999,-99.99,,,-99.99,,2013-01-16 10:12:00,
2013-01-16 05:22:00,71.0,-99.9,30.06,NW,304,2.0,4.0,-999,-99.99,,,-99.99,,2013-01-16 10:22:00,
2013-01-16 05:33:00,71.0,-99.9,30.06,North,-999,-999.0,-999.0,-999,-99.99,,,-99.99,,2013-01-16 10:33:00,
2013-01-16 05:43:00,72.0,-99.9,30.06,WNW,302,1.0,2.0,-999,-99.99,,,-99.99,,2013-01-16 10:43:00,
2013-01-16 05:53:00,72.0,-99.9,30.06,North,-999,-999.0,-999.0,-999,-99.99,,,-99.99,,2013-01-16 10:53:00,
2013-01-16 06:02:00,75.0,-99.9,30.06,North,-999,-999.0,-999.0,-999,-99.99,,,-99.99,,2013-01-16 11:02:00,
2013-01-16 06:12:00,75.0,-99.9,30.06,SE,131,9.0,11.0,-999,-99.99,,,-99.99,,2013-01-16 11:12:00,
2013-01-16 06:23:00,75.0,-99.9,30.06,SE,141,11.0,12.0,-999,-99.99,,,-99.99,,2013-01-16 11:23:00,
2013-01-16 06:33:00,75.0,-99.9,30.06,SE,145,11.0,13.0,-999,-99.99,,,-99.99,,2013-01-16 11:33:00,
2013-01-16 06:43:00,75.0,-99.9,30.07,SE,139,13.0,14.0,-999,-99.99,,,-99.99,,2013-01-16 11:43:00,
2013-01-16 06:53:00,75.0,-99.9,30.07,SE,146,13.0,14.0,-999,-99.99,,,-99.99,,2013-01-16 11:53:00,
2013-01-16 07:03:00,75.0,-99.9,30.07,SE,138,13.0,15.0,-999,-99.99,,,-99.99,,2013-01-16 12:03:00,
2013-01-16 07:13:00,75.0,-99.9,30.07,SE,144,11.0,15.0,-999,-99.99,,,-99.99,,2013-01-16 12:13:00,
2013-01-16 07:22:00,75.0,-99.9,30.08,SSE,147,12.0,14.0,-999,-99.99,,,-99.99,,2013-01-16 12:22:00,
2013-01-16 07:33:00,75.0,-99.9,30.08,SE,142,13.0,15.0,-999,-99.99,,,-99.99,,2013-01-16 12:33:00,
2013-01-16 07:43:00,75.0,-99.9,30.08,SSE,150,12.0,16.0,-999,-99.99,,,-99.99,,2013-01-16 12:43:00,
2013-01-16 07:53:00,75.0,-99.9,30.08,SSE,147,15.0,17.0,-999,-99.99,,,-99.99,,2013-01-16 12:53:00,
2013-01-16 08:03:00,75.0,-99.9,30.09,SE,142,12.0,14.0,-999,-99.99,,,-99.99,,2013-01-16 13:03:00,
2013-01-16 08:13:00,75.0,-99.9,30.09,SE,137,13.0,15.0,-999,-99.99,,,-99.99,,2013-01-16 13:13:00,
2013-01-16 08:23:00,76.0,-99.9,30.09,SE,142,12.0,14.0,-999,-99.99,,,-99.99,,2013-01-16 13:23:00,
2013-01-16 08:33:00,75.0,-99.9,30.09,SE,139,13.0,15.0,-999,-99.99,,,-99.99,,2013-01-16 13:33:00,
2013-01-16 08:43:00,76.0,-99.9,30.09,SE,134,13.0,14.0,-999,-99.99,,,-99.99,,2013-01-16 13:43:00,
2013-01-16 08:53:00,76.0,-99.9,30.09,SSE,148,12.0,15.0,-999,-99.99,,,-99.99,,2013-01-16 13:53:00,
2013-01-16 09:03:00,76.0,-99.9,30.10,SE,142,12.0,15.0,-999,-99.99,,,-99.99,,2013-01-16 14:03:00,
2013-01-16 09:12:00,76.0,-99.9,30.10,SE,140,13.0,15.0,-999,-99.99,,,-99.99,,2013-01-16 14:12:00,
2013-01-16 09:23:00,76.0,-99.9,30.11,SSE,150,13.0,16.0,-999,-99.99,,,-99.99,,2013-01-16 14:23:00,
2013-01-16 09:33:00,75.0,-99.9,30.11,SSE,148,11.0,15.0,-999,-99.99,,,-99.99,,2013-01-16 14:33:00,
2013-01-16 09:43:00,76.0,-99.9,30.11,SE,145,11.0,14.0,-999,-99.99,,,-99.99,,2013-01-16 14:43:00,
2013-01-16 09:53:00,76.0,-99.9,30.11,SE,145,15.0,16.0,-999,-99.99,,,-99.99,,2013-01-16 14:53:00,
2013-01-16 10:03:00,76.0,-99.9,30.11,SSE,148,13.0,16.0,-999,-99.99,,,-99.99,,2013-01-16 15:03:00,
2013-01-16 10:12:00,76.0,-99.9,30.12,SE,145,12.0,14.0,-999,-99.99,,,-99.99,,2013-01-16 15:12:00,
2013-01-16 10:23:00,76.0,-99.9,30.12,SSE,155,13.0,14.0,-999,-99.99,,,-99.99,,2013-01-16 15:23:00,
2013-01-16 10:33:00,76.0,-99.9,30.12,SSE,151,13.0,15.0,-999,-99.99,,,-99.99,,2013-01-16 15:33:00,
2013-01-16 10:43:00,76.0,-99.9,30.12,SSE,150,12.0,15.0,-999,-99.99,,,-99.99,,2013-01-16 15:43:00,
2013-01-16 10:53:00,76.0,-99.9,30.12,SSE,154,13.0,15.0,-999,-99.99,,,-99.99,,2013-01-16 15:53:00,
2013-01-16 11:04:00,76.0,-99.9,30.11,SE,146,14.0,15.0,-999,-99.99,,,-99.99,,2013-01-16 16:04:00,
2013-01-16 11:12:00,76.0,-99.9,30.11,SE,146,13.0,15.0,-999,-99.99,,,-99.99,,2013-01-16 16:12:00,
2013-01-16 11:23:00,76.0,-99.9,30.11,SSE,148,13.0,15.0,-999,-99.99,,,-99.99,,2013-01-16 16:23:00,
2013-01-16 11:33:00,76.0,-99.9,30.10,SSE,153,13.0,15.0,-999,-99.99,,,-99.99,,2013-01-16 16:33:00,
2013-01-16 11:43:00,76.0,-99.9,30.10,SSE,149,11.0,14.0,-999,-99.99,,,-99.99,,2013-01-16 16:43:00,
2013-01-16 11:53:00,76.0,-99.9,30.10,SSE,147,12.0,14.0,-999,-99.99,,,-99.99,,2013-01-16 16:53:00,
2013-01-16 12:03:00,76.0,-99.9,30.09,SSE,150,13.0,15.0,-999,-99.99,,,-99.99,,2013-01-16 17:03:00,
2013-01-16 12:12:00,76.0,-99.9,30.09,SSE,151,12.0,17.0,-999,-99.99,,,-99.99,,2013-01-16 17:12:00,
2013-01-16 12:23:00,76.0,-99.9,30.08,SE,145,12.0,14.0,-999,-99.99,,,-99.99,,2013-01-16 17:23:00,
2013-01-16 12:33:00,76.0,-99.9,30.08,SSE,147,13.0,15.0,-999,-99.99,,,-99.99,,2013-01-16 17:33:00,
2013-01-16 12:44:00,76.0,-99.9,30.07,SSE,152,13.0,15.0,-999,-99.99,,,-99.99,,2013-01-16 17:44:00,
2013-01-16 12:53:00,76.0,-99.9,30.07,SE,144,12.0,14.0,-999,-99.99,,,-99.99,,2013-01-16 17:53:00,
2013-01-16 13:03:00,76.0,-99.9,30.07,SE,141,13.0,15.0,-999,-99.99,,,-99.99,,2013-01-16 18:03:00,
2013-01-16 13:13:00,76.0,-99.9,30.06,SSE,152,13.0,15.0,-999,-99.99,,,-99.99,,2013-01-16 18:13:00,
2013-01-16 13:23:00,76.0,-99.9,30.06,SSE,150,13.0,14.0,-999,-99.99,,,-99.99,,2013-01-16 18:23:00,
2013-01-16 13:33:00,76.0,-99.9,30.05,SE,144,13.0,15.0,-999,-99.99,,,-99.99,,2013-01-16 18:33:00,
2013-01-16 13:43:00,76.0,-99.9,30.05,SSE,153,12.0,15.0,-999,-99.99,,,-99.99,,2013-01-16 18:43:00,
2013-01-16 13:53:00,76.0,-99.9,30.05,SE,145,13.0,15.0,-999,-99.99,,,-99.99,,2013-01-16 18:53:00,
2013-01-16 14:03:00,76.0,-99.9,30.04,SSE,153,13.0,15.0,-999,-99.99,,,-99.99,,2013-01-16 19:03:00,
2013-01-16 14:13:00,76.0,-99.9,30.04,SSE,148,12.0,14.0,-999,-99.99,,,-99.99,,2013-01-16 19:13:00,
2013-01-16 14:23:00,76.0,-99.9,30.04,SE,142,11.0,13.0,-999,-99.99,,,-99.99,,2013-01-16 19:23:00,
2013-01-16 14:33:00,76.0,-99.9,30.04,SE,145,12.0,14.0,-999,-99.99,,,-99.99,,2013-01-16 19:33:00,
2013-01-16 14:43:00,76.0,-99.9,30.04,SE,141,14.0,15.0,-999,-99.99,,,-99.99,,2013-01-16 19:43:00,
2013-01-16 14:53:00,76.0,-99.9,30.03,SE,143,12.0,15.0,-999,-99.99,,,-99.99,,2013-01-16 19:53:00,
2013-01-16 15:03:00,76.0,-99.9,30.03,SE,146,14.0,16.0,-999,-99.99,,,-99.99,,2013-01-16 20:03:00,
2013-01-16 15:12:00,76.0,-99.9,30.03,SSE,148,13.0,14.0,-999,-99.99,,,-99.99,,2013-01-16 20:12:00,
2013-01-16 15:23:00,76.0,-99.9,30.03,SSE,148,13.0,14.0,-999,-99.99,,,-99.99,,2013-01-16 20:23:00,
2013-01-16 15:33:00,76.0,-99.9,30.04,SE,141,13.0,15.0,-999,-99.99,,,-99.99,,2013-01-16 20:33:00,
2013-01-16 15:43:00,76.0,-99.9,30.04,SSE,147,13.0,15.0,-999,-99.99,,,-99.99,,2013-01-16 20:43:00,
2013-01-16 15:53:00,76.0,-99.9,30.04,SSE,147,13.0,15.0,-999,-99.99,,,-99.99,,2013-01-16 20:53:00,
2013-01-16 16:03:00,76.0,-99.9,30.04,SSE,153,12.0,13.0,-999,-99.99,,,-99.99,,2013-01-16 21:03:00,
2013-01-16 16:13:00,76.0,-99.9,30.04,SSE,148,12.0,15.0,-999,-99.99,,,-99.99,,2013-01-16 21:13:00,
2013-01-16 16:23:00,76.0,-99.9,30.04,SSE,152,13.0,14.0,-999,-99.99,,,-99.99,,2013-01-16 21:23:00,
2013-01-16 16:33:00,76.0,-99.9,30.04,SSE,152,11.0,13.0,-999,-99.99,,,-99.99,,2013-01-16 21:33:00,
2013-01-16 16:43:00,76.0,-99.9,30.04,SSE,154,12.0,13.0,-999,-99.99,,,-99.99,,2013-01-16 21:43:00,
2013-01-16 16:53:00,76.0,-99.9,30.05,SSE,158,12.0,14.0,-999,-99.99,,,-99.99,,2013-01-16 21:53:00,
2013-01-16 17:03:00,76.0,-99.9,30.05,SSE,159,12.0,15.0,-999,-99.99,,,-99.99,,2013-01-16 22:03:00,
2013-01-16 17:12:00,76.0,-99.9,30.05,SSE,159,15.0,16.0,-999,-99.99,,,-99.99,,2013-01-16 22:12:00,
2013-01-16 17:23:00,76.0,-99.9,30.05,SSE,157,14.0,15.0,-999,-99.99,,,-99.99,,2013-01-16 22:23:00,
2013-01-16 17:33:00,76.0,-99.9,30.05,SSE,156,15.0,17.0,-999,-99.99,,,-99.99,,2013-01-16 22:33:00,
2013-01-16 17:43:00,76.0,-99.9,30.05,SSE,152,15.0,18.0,-999,-99.99,,,-99.99,,2013-01-16 22:43:00,
2013-01-16 17:53:00,76.0,-99.9,30.05,SSE,155,15.0,17.0,-999,-99.99,,,-99.99,,2013-01-16 22:53:00,
2013-01-16 18:03:00,76.0,-99.9,30.06,SSE,153,16.0,17.0,-999,-99.99,,,-99.99,,2013-01-16 23:03:00,
2013-01-16 18:12:00,76.0,-99.9,30.05,SSE,155,17.0,18.0,-999,-99.99,,,-99.99,,2013-01-16 23:12:00,
2013-01-16 18:23:00,76.0,-99.9,30.05,SSE,154,15.0,17.0,-999,-99.99,,,-99.99,,2013-01-16 23:23:00,
2013-01-16 18:33:00,76.0,-99.9,30.06,SSE,156,16.0,17.0,-999,-99.99,,,-99.99,,2013-01-16 23:33:00,
2013-01-16 18:43:00,76.0,-99.9,30.06,SE,141,15.0,18.0,-999,-99.99,,,-99.99,,2013-01-16 23:43:00,
2013-01-16 18:53:00,76.0,-99.9,30.06,SE,145,13.0,16.0,-999,-99.99,,,-99.99,,2013-01-16 23:53:00,
2013-01-16 19:03:00,76.0,-99.9,30.06,SSE,148,14.0,16.0,-999,-99.99,,,-99.99,,2013-01-17 00:03:00,
2013-01-16 19:12:00,76.0,-99.9,30.06,SSE,148,14.0,16.0,-999,-99.99,,,-99.99,,2013-01-17 00:12:00,
2013-01-16 19:23:00,76.0,-99.9,30.06,SE,141,13.0,15.0,-999,-99.99,,,-99.99,,2013-01-17 00:23:00,
2013-01-16 19:33:00,76.0,-99.9,30.07,SE,144,14.0,15.0,-999,-99.99,,,-99.99,,2013-01-17 00:33:00,
2013-01-16 19:43:00,76.0,-99.9,30.07,SE,146,15.0,16.0,-999,-99.99,,,-99.99,,2013-01-17 00:43:00,
2013-01-16 19:53:00,76.0,-99.9,30.07,SSE,150,13.0,16.0,-999,-99.99,,,-99.99,,2013-01-17 00:53:00,
2013-01-16 20:03:00,76.0,-99.9,30.07,SSE,152,13.0,17.0,-999,-99.99,,,-99.99,,2013-01-17 01:03:00,
2013-01-16 20:12:00,76.0,-99.9,30.08,SSE,152,14.0,16.0,-999,-99.99,,,-99.99,,2013-01-17 01:12:00,
2013-01-16 20:22:00,76.0,-99.9,30.08,SSE,152,14.0,16.0,-999,-99.99,,,-99.99,,2013-01-17 01:22:00,
2013-01-16 20:33:00,76.0,-99.9,30.08,SSE,147,15.0,16.0,-999,-99.99,,,-99.99,,2013-01-17 01:33:00,
2013-01-16 20:43:00,75.0,-99.9,30.08,SSE,149,14.0,17.0,-999,-99.99,,,-99.99,,2013-01-17 01:43:00,
2013-01-16 20:53:00,76.0,-99.9,30.08,SSE,150,14.0,17.0,-999,-99.99,,,-99.99,,2013-01-17 01:53:00,
2013-01-16 21:02:00,76.0,-99.9,30.08,SSE,152,14.0,16.0,-999,-99.99,,,-99.99,,2013-01-17 02:02:00,
2013-01-16 21:12:00,76.0,-99.9,30.08,SSE,147,13.0,16.0,-999,-99.99,,,-99.99,,2013-01-17 02:12:00,
2013-01-16 21:22:00,76.0,-99.9,30.08,SSE,152,14.0,15.0,-999,-99.99,,,-99.99,,2013-01-17 02:22:00,
2013-01-16 21:32:00,76.0,-99.9,30.08,SSE,149,14.0,15.0,-999,-99.99,,,-99.99,,2013-01-17 02:32:00,
2013-01-16 21:43:00,76.0,-99.9,30.08,SSE,149,14.0,15.0,-999,-99.99,,,-99.99,,2013-01-17 02:43:00,
2013-01-16 21:52:00,76.0,-99.9,30.08,SSE,149,14.0,15.0,-999,-99.99,,,-99.99,,2013-01-17 02:52:00,
2013-01-16 22:03:00,76.0,-99.9,30.07,SE,143,14.0,16.0,-999,-99.99,,,-99.99,,2013-01-17 03:03:00,
2013-01-16 22:12:00,76.0,-99.9,30.08,SSE,148,13.0,15.0,-999,-99.99,,,-99.99,,2013-01-17 03:12:00,
2013-01-16 22:22:00,76.0,-99.9,30.08,SE,145,14.0,16.0,-999,-99.99,,,-99.99,,2013-01-17 03:22:00,
2013-01-16 22:33:00,76.0,-99.9,30.07,SE,146,14.0,16.0,-999,-99.99,,,-99.99,,2013-01-17 03:33:00,
2013-01-16 22:43:00,76.0,-99.9,30.07,SE,145,15.0,16.0,-999,-99.99,,,-99.99,,2013-01-17 03:43:00,
2013-01-16 22:53:00,76.0,-99.9,30.06,SE,138,15.0,17.0,-999,-99.99,,,-99.99,,2013-01-17 03:53:00,
2013-01-16 23:02:00,76.0,-99.9,30.06,SSE,149,13.0,16.0,-999,-99.99,,,-99.99,,2013-01-17 04:02:00,
2013-01-16 23:12:00,76.0,-99.9,30.06,SE,137,15.0,17.0,-999,-99.99,,,-99.99,,2013-01-17 04:12:00,
2013-01-16 23:23:00,76.0,-99.9,30.06,SE,145,15.0,17.0,-999,-99.99,,,-99.99,,2013-01-17 04:23:00,
2013-01-16 23:33:00,76.0,-99.9,30.06,SE,142,13.0,16.0,-999,-99.99,,,-99.99,,2013-01-17 04:33:00,
2013-01-16 23:43:00,75.0,-99.9,30.05,SE,131,15.0,17.0,-999,-99.99,,,-99.99,,2013-01-17 04:43:00,
2013-01-16 23:53:00,76.0,-99.9,30.05,SE,139,15.0,16.0,-999,-99.99,,,-99.99,,2013-01-17 04:53:00,